createdAt,value
2023-01-04T00:00:05.852Z,2.50
2023-01-04T00:01:05.818Z,2.40
2023-01-04T00:02:05.862Z,2.30
2023-01-04T00:03:05.932Z,2.60
2023-01-04T00:04:05.864Z,2.40
2023-01-04T00:05:05.810Z,2.50
2023-01-04T00:06:05.809Z,2.40
2023-01-04T00:07:05.786Z,2.30
2023-01-04T00:08:05.784Z,2.60
2023-01-04T00:09:05.778Z,2.30
2023-01-04T00:10:05.770Z,2.40
2023-01-04T00:11:05.768Z,2.40
2023-01-04T00:12:05.763Z,2.60
2023-01-04T00:13:05.758Z,2.40
2023-01-04T00:14:05.754Z,2.70
2023-01-04T00:15:05.752Z,2.40
2023-01-04T00:16:08.166Z,2.60
2023-01-04T00:17:05.740Z,2.40
2023-01-04T00:18:05.731Z,2.40
2023-01-04T00:19:05.733Z,2.40
2023-01-04T00:20:05.729Z,2.30
2023-01-04T00:21:05.720Z,2.50
2023-01-04T00:22:06.179Z,2.20
2023-01-04T00:23:05.709Z,2.30
2023-01-04T00:24:05.705Z,2.30
2023-01-04T00:25:05.702Z,2.50
2023-01-04T00:26:05.698Z,2.20
2023-01-04T00:27:05.694Z,2.60
2023-01-04T00:28:05.684Z,2.30
2023-01-04T00:29:05.720Z,2.20
2023-01-04T00:30:05.714Z,2.30
2023-01-04T00:31:05.737Z,2.40
2023-01-04T00:32:05.726Z,2.30
2023-01-04T00:33:05.660Z,2.20
2023-01-04T00:34:05.686Z,2.10
2023-01-04T00:35:05.730Z,2.30
2023-01-04T00:36:05.664Z,2.20
2023-01-04T00:37:05.676Z,2.30
2023-01-04T00:38:05.683Z,2.10
2023-01-04T00:39:05.654Z,2.10
2023-01-04T00:40:05.674Z,2.40
2023-01-04T00:41:05.622Z,2.30
2023-01-04T00:42:05.638Z,2.00
2023-01-04T00:43:05.669Z,2.10
2023-01-04T00:44:05.624Z,2.20
2023-01-04T00:45:05.678Z,2.30
2023-01-04T00:46:05.638Z,2.20
2023-01-04T00:47:05.712Z,2.30
2023-01-04T00:48:05.601Z,2.10
2023-01-04T00:49:05.667Z,2.20
2023-01-04T00:50:05.586Z,2.20
2023-01-04T00:51:05.573Z,2.40
2023-01-04T00:52:05.579Z,2.20
2023-01-04T00:53:05.604Z,2.20
2023-01-04T00:54:05.595Z,2.00
2023-01-04T00:55:05.558Z,2.50
2023-01-04T00:56:05.551Z,2.20
2023-01-04T00:57:05.548Z,2.30
2023-01-04T00:58:05.549Z,2.00
2023-01-04T00:59:05.537Z,2.10
2023-01-04T01:00:05.539Z,2.40
2023-01-04T01:01:05.568Z,2.20
2023-01-04T01:02:05.646Z,2.10
2023-01-04T01:03:05.800Z,2.40
2023-01-04T01:04:05.621Z,2.50
2023-01-04T01:05:05.511Z,2.00
2023-01-04T01:06:05.506Z,2.10
2023-01-04T01:07:05.500Z,2.30
2023-01-04T01:08:05.518Z,2.30
2023-01-04T01:09:05.495Z,2.30
2023-01-04T01:10:05.505Z,2.30
2023-01-04T01:11:05.478Z,2.30
2023-01-04T01:12:05.485Z,2.40
2023-01-04T01:13:05.470Z,2.30
2023-01-04T01:14:05.467Z,2.40
2023-01-04T01:15:05.466Z,2.50
2023-01-04T01:16:05.523Z,2.20
2023-01-04T01:17:05.499Z,2.30
2023-01-04T01:18:05.449Z,2.20
2023-01-04T01:19:05.458Z,2.50
2023-01-04T01:20:05.439Z,2.50
2023-01-04T01:21:05.440Z,2.60
2023-01-04T01:22:05.433Z,2.30
2023-01-04T01:23:05.426Z,2.40
2023-01-04T01:24:05.423Z,2.50
2023-01-04T01:25:05.420Z,2.60
2023-01-04T01:26:05.432Z,2.20
2023-01-04T01:27:05.411Z,2.40
2023-01-04T01:28:05.403Z,2.40
2023-01-04T01:29:05.400Z,2.60
2023-01-04T01:30:05.394Z,2.40
2023-01-04T01:31:08.717Z,2.30
2023-01-04T01:32:05.390Z,2.40
2023-01-04T01:33:05.386Z,2.40
2023-01-04T01:34:05.377Z,2.60
2023-01-04T01:35:05.368Z,2.50
2023-01-04T01:36:05.364Z,2.60
2023-01-04T01:37:05.360Z,2.30
2023-01-04T01:38:05.362Z,2.30
2023-01-04T01:39:05.350Z,2.40
2023-01-04T01:40:05.350Z,2.40
2023-01-04T01:41:05.346Z,2.20
2023-01-04T01:42:05.415Z,2.40
2023-01-04T01:43:05.336Z,2.30
2023-01-04T01:44:05.327Z,2.40
2023-01-04T01:45:05.334Z,2.50
2023-01-04T01:46:05.387Z,2.50
2023-01-04T01:47:05.313Z,2.60
2023-01-04T01:48:05.321Z,2.50
2023-01-04T01:49:05.305Z,2.70
2023-01-04T01:50:05.303Z,2.90
2023-01-04T01:51:05.310Z,2.50
2023-01-04T01:52:05.305Z,2.60
2023-01-04T01:53:05.285Z,2.60
2023-01-04T01:54:05.285Z,2.70
2023-01-04T01:55:05.291Z,2.50
2023-01-04T01:56:05.271Z,2.70
2023-01-04T01:57:05.269Z,2.70
2023-01-04T01:58:05.277Z,2.70
2023-01-04T01:59:05.267Z,2.60
2023-01-04T02:00:05.249Z,2.70
2023-01-04T02:01:05.289Z,2.50
2023-01-04T02:02:05.393Z,2.80
2023-01-04T02:03:05.383Z,2.50
2023-01-04T02:04:05.338Z,2.60
2023-01-04T02:05:05.227Z,2.80
2023-01-04T02:06:05.225Z,2.80
2023-01-04T02:07:05.228Z,2.50
2023-01-04T02:08:05.214Z,2.70
2023-01-04T02:09:05.217Z,2.70
2023-01-04T02:10:05.227Z,2.70
2023-01-04T02:11:05.197Z,2.70
2023-01-04T02:12:05.200Z,2.50
2023-01-04T02:13:05.196Z,2.70
2023-01-04T02:14:05.223Z,2.80
2023-01-04T02:15:05.180Z,2.60
2023-01-04T02:16:05.301Z,2.70
2023-01-04T02:17:05.172Z,2.80
2023-01-04T02:18:05.163Z,2.70
2023-01-04T02:19:05.160Z,2.70
2023-01-04T02:20:05.159Z,2.50
2023-01-04T02:21:05.157Z,2.80
2023-01-04T02:22:05.150Z,2.70
2023-01-04T02:23:05.141Z,2.60
2023-01-04T02:24:05.134Z,2.80
2023-01-04T02:25:05.133Z,2.70
2023-01-04T02:26:05.129Z,2.80
2023-01-04T02:27:05.124Z,2.80
2023-01-04T02:28:05.127Z,2.80
2023-01-04T02:29:05.115Z,2.80
2023-01-04T02:30:05.633Z,2.80
2023-01-04T02:31:05.136Z,2.70
2023-01-04T02:32:05.100Z,2.80
2023-01-04T02:33:05.094Z,3.00
2023-01-04T02:34:05.105Z,2.90
2023-01-04T02:35:05.084Z,3.00
2023-01-04T02:36:05.077Z,2.80
2023-01-04T02:37:05.078Z,2.60
2023-01-04T02:38:05.067Z,3.10
2023-01-04T02:39:05.065Z,2.90
2023-01-04T02:40:05.056Z,2.80
2023-01-04T02:41:05.055Z,3.20
2023-01-04T02:42:05.044Z,2.90
2023-01-04T02:43:05.049Z,3.10
2023-01-04T02:44:05.038Z,3.00
2023-01-04T02:45:05.043Z,3.30
2023-01-04T02:46:05.120Z,3.10
2023-01-04T02:47:05.090Z,2.70
2023-01-04T02:48:05.021Z,3.10
2023-01-04T02:49:05.011Z,3.10
2023-01-04T02:50:05.758Z,2.90
2023-01-04T02:51:05.006Z,3.10
2023-01-04T02:52:05.000Z,3.00
2023-01-04T02:53:05.019Z,2.90
2023-01-04T02:54:04.992Z,3.10
2023-01-04T02:55:04.983Z,3.00
2023-01-04T02:56:04.979Z,3.10
2023-01-04T02:57:06.062Z,3.40
2023-01-04T02:58:04.978Z,3.20
2023-01-04T02:59:04.975Z,3.30
2023-01-04T03:00:05.096Z,3.20
2023-01-04T03:01:04.959Z,3.20
2023-01-04T03:02:05.193Z,3.20
2023-01-04T03:03:05.129Z,3.40
2023-01-04T03:04:05.008Z,3.30
2023-01-04T03:05:04.943Z,3.40
2023-01-04T03:06:04.929Z,3.30
2023-01-04T03:07:04.937Z,3.30
2023-01-04T03:08:04.921Z,3.50
2023-01-04T03:09:04.918Z,3.50
2023-01-04T03:10:04.924Z,3.00
2023-01-04T03:11:04.912Z,3.50
2023-01-04T03:12:04.912Z,3.70
2023-01-04T03:13:04.905Z,3.50
2023-01-04T03:14:32.740Z,3.50
2023-01-04T03:15:04.891Z,3.60
2023-01-04T03:16:04.997Z,3.40
2023-01-04T03:17:04.899Z,3.50
2023-01-04T03:18:04.891Z,3.60
2023-01-04T03:19:04.871Z,3.60
2023-01-04T03:20:04.866Z,3.60
2023-01-04T03:21:04.887Z,3.70
2023-01-04T03:22:04.856Z,3.70
2023-01-04T03:23:04.854Z,3.60
2023-01-04T03:24:04.863Z,3.70
2023-01-04T03:25:04.859Z,3.60
2023-01-04T03:26:04.841Z,3.50
2023-01-04T03:27:04.830Z,3.40
2023-01-04T03:28:04.825Z,3.20
2023-01-04T03:29:04.829Z,3.50
2023-01-04T03:30:04.827Z,3.70
2023-01-04T03:31:05.068Z,3.50
2023-01-04T03:32:04.820Z,3.60
2023-01-04T03:33:04.805Z,3.60
2023-01-04T03:34:04.813Z,3.60
2023-01-04T03:35:04.840Z,3.70
2023-01-04T03:36:04.802Z,3.70
2023-01-04T03:37:04.801Z,3.70
2023-01-04T03:38:04.781Z,3.80
2023-01-04T03:39:04.787Z,3.40
2023-01-04T03:40:04.777Z,3.90
2023-01-04T03:41:04.783Z,3.80
2023-01-04T03:42:04.770Z,3.50
2023-01-04T03:43:04.768Z,3.50
2023-01-04T03:44:04.751Z,3.50
2023-01-04T03:45:10.032Z,3.60
2023-01-04T03:46:04.743Z,3.60
2023-01-04T03:47:04.784Z,3.40
2023-01-04T03:48:04.744Z,3.70
2023-01-04T03:49:04.735Z,3.40
2023-01-04T03:50:04.747Z,3.60
2023-01-04T03:51:04.791Z,3.30
2023-01-04T03:52:04.716Z,3.40
2023-01-04T03:53:04.716Z,3.40
2023-01-04T03:54:04.706Z,3.60
2023-01-04T03:55:04.712Z,3.20
2023-01-04T03:56:04.700Z,3.10
2023-01-04T03:57:04.694Z,3.40
2023-01-04T03:58:04.694Z,3.20
2023-01-04T03:59:04.709Z,3.20
2023-01-04T04:00:04.678Z,3.20
2023-01-04T04:01:04.814Z,3.00
2023-01-04T04:02:04.686Z,3.00
2023-01-04T04:03:04.665Z,3.20
2023-01-04T04:04:04.730Z,3.10
2023-01-04T04:05:04.677Z,2.90
2023-01-04T04:06:04.859Z,2.70
2023-01-04T04:07:04.651Z,3.20
2023-01-04T04:08:04.645Z,2.80
2023-01-04T04:09:04.644Z,2.80
2023-01-04T04:10:04.641Z,2.60
2023-01-04T04:11:04.630Z,2.70
2023-01-04T04:12:04.628Z,2.40
2023-01-04T04:13:04.620Z,2.40
2023-01-04T04:14:04.611Z,2.30
2023-01-04T04:15:04.614Z,2.20
2023-01-04T04:16:04.627Z,2.00
2023-01-04T04:17:04.604Z,2.00
2023-01-04T04:18:04.603Z,2.00
2023-01-04T04:19:08.605Z,1.70
2023-01-04T04:20:04.595Z,1.70
2023-01-04T04:21:04.588Z,1.70
2023-01-04T04:22:04.623Z,1.60
2023-01-04T04:23:04.580Z,1.30
2023-01-04T04:24:04.581Z,1.20
2023-01-04T04:25:04.568Z,1.20
2023-01-04T04:26:04.581Z,1.20
2023-01-04T04:27:04.561Z,1.30
2023-01-04T04:28:04.556Z,1.10
2023-01-04T04:29:04.550Z,1.10
2023-01-04T04:30:04.548Z,1.10
2023-01-04T04:31:05.000Z,1.10
2023-01-04T04:32:04.640Z,1.20
2023-01-04T04:33:04.535Z,1.10
2023-01-04T04:34:04.529Z,1.00
2023-01-04T04:35:04.542Z,1.00
2023-01-04T04:36:04.523Z,1.00
2023-01-04T04:37:04.523Z,1.00
2023-01-04T04:38:04.527Z,1.00
2023-01-04T04:39:04.508Z,0.90
2023-01-04T04:40:04.568Z,0.80
2023-01-04T04:41:04.501Z,1.10
2023-01-04T04:42:04.491Z,1.00
2023-01-04T04:43:04.505Z,0.80
2023-01-04T04:44:04.492Z,0.90
2023-01-04T04:45:04.483Z,0.90
2023-01-04T04:46:04.646Z,0.90
2023-01-04T04:47:04.468Z,0.80
2023-01-04T04:48:04.466Z,0.80
2023-01-04T04:49:04.460Z,0.80
2023-01-04T04:50:04.472Z,0.90
2023-01-04T04:51:04.452Z,1.00
2023-01-04T04:52:04.453Z,0.90
2023-01-04T04:53:04.443Z,0.80
2023-01-04T04:54:04.469Z,0.80
2023-01-04T04:55:04.440Z,0.90
2023-01-04T04:56:04.431Z,0.90
2023-01-04T04:57:04.427Z,0.90
2023-01-04T04:58:04.421Z,0.90
2023-01-04T04:59:04.419Z,0.90
2023-01-04T05:00:04.412Z,0.90
2023-01-04T05:01:04.455Z,0.80
2023-01-04T05:02:04.611Z,0.80
2023-01-04T05:03:04.563Z,0.90
2023-01-04T05:04:04.426Z,0.90
2023-01-04T05:05:04.393Z,0.70
2023-01-04T05:06:04.390Z,0.80
2023-01-04T05:07:10.598Z,0.80
2023-01-04T05:08:04.383Z,0.90
2023-01-04T05:09:04.377Z,0.80
2023-01-04T05:10:04.403Z,0.70
2023-01-04T05:11:04.366Z,0.90
2023-01-04T05:12:04.365Z,0.70
2023-01-04T05:13:04.360Z,0.70
2023-01-04T05:14:04.384Z,0.80
2023-01-04T05:15:04.353Z,0.90
2023-01-04T05:16:04.471Z,0.60
2023-01-04T05:17:04.468Z,0.50
2023-01-04T05:18:04.347Z,0.60
2023-01-04T05:19:04.343Z,0.60
2023-01-04T05:20:04.332Z,0.70
2023-01-04T05:21:04.327Z,0.50
2023-01-04T05:22:04.333Z,0.60
2023-01-04T05:23:04.320Z,0.60
2023-01-04T05:24:04.319Z,0.70
2023-01-04T05:25:04.311Z,0.60
2023-01-04T05:26:04.325Z,0.60
2023-01-04T05:27:04.300Z,0.70
2023-01-04T05:28:04.293Z,0.60
2023-01-04T05:29:04.304Z,0.50
2023-01-04T05:30:04.282Z,0.70
2023-01-04T05:31:04.480Z,0.70
2023-01-04T05:32:04.409Z,0.60
2023-01-04T05:33:04.279Z,0.70
2023-01-04T05:34:04.269Z,0.80
2023-01-04T05:35:04.265Z,0.70
2023-01-04T05:36:04.271Z,0.70
2023-01-04T05:37:04.253Z,0.70
2023-01-04T05:38:04.254Z,1.10
2023-01-04T05:39:04.248Z,1.20
2023-01-04T05:40:04.263Z,1.40
2023-01-04T05:41:04.244Z,1.30
2023-01-04T05:42:04.306Z,1.10
2023-01-04T05:43:04.248Z,1.30
2023-01-04T05:44:04.231Z,1.30
2023-01-04T05:45:04.225Z,1.30
2023-01-04T05:46:04.315Z,0.90
2023-01-04T05:47:05.417Z,0.80
2023-01-04T05:48:04.213Z,0.70
2023-01-04T05:49:04.207Z,0.60
2023-01-04T05:50:04.201Z,0.90
2023-01-04T05:51:04.201Z,0.90
2023-01-04T05:52:04.197Z,0.60
2023-01-04T05:53:04.209Z,0.80
2023-01-04T05:54:04.183Z,0.80
2023-01-04T05:55:04.182Z,0.90
2023-01-04T05:56:04.174Z,0.80
2023-01-04T05:57:04.174Z,0.80
2023-01-04T05:58:04.187Z,0.90
2023-01-04T05:59:04.168Z,0.80
2023-01-04T06:00:04.168Z,0.80
2023-01-04T06:01:04.181Z,0.70
2023-01-04T06:02:04.273Z,0.90
2023-01-04T06:03:04.352Z,0.80
2023-01-04T06:04:04.209Z,0.60
2023-01-04T06:05:04.144Z,0.80
2023-01-04T06:06:04.154Z,0.60
2023-01-04T06:07:04.132Z,0.80
2023-01-04T06:08:04.137Z,0.70
2023-01-04T06:09:04.134Z,0.70
2023-01-04T06:10:04.124Z,0.60
2023-01-04T06:11:04.116Z,0.60
2023-01-04T06:12:04.129Z,0.60
2023-01-04T06:13:04.112Z,0.70
2023-01-04T06:14:04.122Z,0.70
2023-01-04T06:15:04.099Z,0.70
2023-01-04T06:16:04.109Z,0.60
2023-01-04T06:17:04.120Z,0.60
2023-01-04T06:18:08.668Z,0.60
2023-01-04T06:19:04.094Z,0.60
2023-01-04T06:20:04.074Z,0.60
2023-01-04T06:21:04.074Z,0.60
2023-01-04T06:22:04.066Z,0.60
2023-01-04T06:23:04.062Z,0.40
2023-01-04T06:24:04.063Z,0.50
2023-01-04T06:25:04.055Z,0.70
2023-01-04T06:26:04.052Z,0.50
2023-01-04T06:27:04.062Z,0.60
2023-01-04T06:28:04.053Z,0.40
2023-01-04T06:29:04.050Z,0.50
2023-01-04T06:30:04.132Z,0.40
2023-01-04T06:31:04.113Z,0.70
2023-01-04T06:32:04.032Z,0.50
2023-01-04T06:33:04.026Z,0.60
2023-01-04T06:34:04.018Z,0.50
2023-01-04T06:35:04.013Z,0.60
2023-01-04T06:36:04.166Z,0.70
2023-01-04T06:37:04.007Z,0.60
2023-01-04T06:38:04.010Z,0.60
2023-01-04T06:39:04.023Z,0.50
2023-01-04T06:40:03.999Z,0.50
2023-01-04T06:41:03.986Z,0.50
2023-01-04T06:42:06.855Z,0.40
2023-01-04T06:43:03.987Z,0.40
2023-01-04T06:44:03.977Z,0.40
2023-01-04T06:45:03.971Z,0.50
2023-01-04T06:46:04.040Z,0.40
2023-01-04T06:47:03.982Z,0.30
2023-01-04T06:48:08.948Z,0.30
2023-01-04T06:49:03.956Z,0.40
2023-01-04T06:50:03.962Z,0.30
2023-01-04T06:51:03.946Z,0.50
2023-01-04T06:52:03.951Z,0.40
2023-01-04T06:53:03.947Z,0.50
2023-01-04T06:54:03.946Z,0.40
2023-01-04T06:55:03.941Z,0.50
2023-01-04T06:56:03.946Z,0.40
2023-01-04T06:57:03.925Z,0.40
2023-01-04T06:58:03.929Z,0.60
2023-01-04T06:59:03.934Z,0.50
2023-01-04T07:00:03.919Z,0.60
2023-01-04T07:01:03.966Z,0.50
2023-01-04T07:02:04.090Z,0.60
2023-01-04T07:03:13.579Z,0.60
2023-01-04T07:04:03.956Z,0.40
2023-01-04T07:05:04.053Z,0.40
2023-01-04T07:06:03.887Z,0.40
2023-01-04T07:07:03.881Z,0.40
2023-01-04T07:08:08.007Z,0.40
2023-01-04T07:09:03.881Z,0.30
2023-01-04T07:10:09.425Z,0.40
2023-01-04T07:11:03.869Z,0.50
2023-01-04T07:12:03.869Z,0.40
2023-01-04T07:13:03.876Z,0.40
2023-01-04T07:14:03.865Z,0.40
2023-01-04T07:15:03.854Z,0.40
2023-01-04T07:16:03.921Z,0.30
2023-01-04T07:17:03.847Z,0.40
2023-01-04T07:18:03.870Z,0.40
2023-01-04T07:19:03.834Z,0.40
2023-01-04T07:20:03.843Z,0.60
2023-01-04T07:21:03.840Z,0.60
2023-01-04T07:22:03.827Z,0.50
2023-01-04T07:23:03.821Z,0.60
2023-01-04T07:24:03.831Z,0.40
2023-01-04T07:25:03.812Z,0.60
2023-01-04T07:26:03.807Z,0.40
2023-01-04T07:27:03.803Z,0.60
2023-01-04T07:28:03.800Z,0.60
2023-01-04T07:29:03.800Z,0.40
2023-01-04T07:30:03.793Z,0.40
2023-01-04T07:31:03.845Z,0.60
2023-01-04T07:32:07.636Z,0.50
2023-01-04T07:33:03.815Z,0.50
2023-01-04T07:34:03.952Z,0.80
2023-01-04T07:35:03.775Z,0.80
2023-01-04T07:36:03.769Z,0.50
2023-01-04T07:37:03.768Z,0.50
2023-01-04T07:38:03.760Z,0.60
2023-01-04T07:39:03.758Z,0.70
2023-01-04T07:40:03.765Z,0.70
2023-01-04T07:41:03.751Z,0.60
2023-01-04T07:42:03.745Z,0.60
2023-01-04T07:43:03.741Z,0.70
2023-01-04T07:44:03.739Z,0.70
2023-01-04T07:45:03.735Z,0.80
2023-01-04T07:46:03.811Z,0.60
2023-01-04T07:47:03.724Z,0.60
2023-01-04T07:48:03.722Z,0.70
2023-01-04T07:49:03.725Z,0.70
2023-01-04T07:50:03.727Z,0.80
2023-01-04T07:51:03.708Z,0.80
2023-01-04T07:52:03.708Z,0.80
2023-01-04T07:53:03.702Z,0.90
2023-01-04T07:54:03.696Z,0.50
2023-01-04T07:55:03.693Z,0.80
2023-01-04T07:56:03.689Z,0.60
2023-01-04T07:57:03.686Z,0.70
2023-01-04T07:58:03.682Z,0.70
2023-01-04T07:59:03.683Z,0.60
2023-01-04T08:00:03.683Z,0.70
2023-01-04T08:01:03.672Z,0.60
2023-01-04T08:02:03.822Z,0.60
2023-01-04T08:03:03.824Z,0.60
2023-01-04T08:04:03.673Z,0.70
2023-01-04T08:05:03.750Z,0.80
2023-01-04T08:06:03.668Z,0.60
2023-01-04T08:07:03.650Z,0.60
2023-01-04T08:08:03.667Z,0.50
2023-01-04T08:09:03.655Z,0.70
2023-01-04T08:10:03.633Z,0.60
2023-01-04T08:11:03.628Z,0.70
2023-01-04T08:12:03.634Z,0.60
2023-01-04T08:13:03.627Z,0.70
2023-01-04T08:14:03.619Z,0.70
2023-01-04T08:15:03.613Z,0.70
2023-01-04T08:16:03.715Z,0.60
2023-01-04T08:17:03.606Z,0.50
2023-01-04T08:18:03.612Z,0.70
2023-01-04T08:19:03.602Z,0.50
2023-01-04T08:20:03.654Z,0.40
2023-01-04T08:21:03.592Z,0.60
2023-01-04T08:22:03.615Z,0.70
2023-01-04T08:23:03.588Z,0.70
2023-01-04T08:24:03.586Z,0.60
2023-01-04T08:25:03.579Z,0.60
2023-01-04T08:26:03.573Z,0.60
2023-01-04T08:27:03.570Z,0.50
2023-01-04T08:28:03.569Z,0.60
2023-01-04T08:29:03.565Z,0.70
2023-01-04T08:30:03.558Z,0.70
2023-01-04T08:31:03.637Z,0.70
2023-01-04T08:32:03.552Z,0.50
2023-01-04T08:33:03.544Z,0.70
2023-01-04T08:34:03.540Z,0.50
2023-01-04T08:35:03.544Z,0.60
2023-01-04T08:36:03.534Z,0.60
2023-01-04T08:37:03.983Z,0.60
2023-01-04T08:38:46.880Z,0.60
2023-01-04T08:39:03.522Z,0.70
2023-01-04T08:40:03.575Z,0.70
2023-01-04T08:41:23.018Z,0.60
2023-01-04T08:42:14.367Z,0.60
2023-01-04T08:43:03.508Z,0.60
2023-01-04T08:44:03.520Z,0.60
2023-01-04T08:45:03.503Z,0.50
2023-01-04T08:46:03.526Z,0.80
2023-01-04T08:47:03.595Z,0.60
2023-01-04T08:48:03.489Z,0.70
2023-01-04T08:49:03.484Z,0.60
2023-01-04T08:50:10.494Z,0.60
2023-01-04T08:51:03.476Z,0.50
2023-01-04T08:52:03.472Z,0.70
2023-01-04T08:53:03.482Z,0.80
2023-01-04T08:54:03.567Z,0.80
2023-01-04T08:55:10.101Z,0.90
2023-01-04T08:56:03.469Z,0.80
2023-01-04T08:57:03.458Z,0.70
2023-01-04T08:58:03.460Z,0.70
2023-01-04T08:59:03.456Z,0.60
2023-01-04T09:00:03.450Z,0.70
2023-01-04T09:01:03.461Z,0.80
2023-01-04T09:02:05.843Z,0.80
2023-01-04T09:03:03.588Z,0.80
2023-01-04T09:04:03.559Z,0.70
2023-01-04T09:05:03.566Z,0.60
2023-01-04T09:06:03.428Z,0.80
2023-01-04T09:07:03.419Z,0.90
2023-01-04T09:08:03.427Z,0.60
2023-01-04T09:09:03.417Z,0.70
2023-01-04T09:10:03.443Z,0.70
2023-01-04T09:11:03.403Z,0.60
2023-01-04T09:12:03.403Z,0.70
2023-01-04T09:13:03.394Z,0.90
2023-01-04T09:14:07.870Z,0.50
2023-01-04T09:15:03.385Z,0.60
2023-01-04T09:16:03.503Z,0.70
2023-01-04T09:17:03.403Z,0.60
2023-01-04T09:18:31.782Z,0.70
2023-01-04T09:19:03.368Z,0.70
2023-01-04T09:20:03.370Z,0.80
2023-01-04T09:21:03.389Z,0.70
2023-01-04T09:22:03.498Z,0.70
2023-01-04T09:23:03.355Z,0.70
2023-01-04T09:24:03.354Z,0.60
2023-01-04T09:25:03.355Z,0.70
2023-01-04T09:26:09.102Z,0.60
2023-01-04T09:27:03.344Z,0.60
2023-01-04T09:28:03.345Z,0.70
2023-01-04T09:29:03.337Z,0.70
2023-01-04T09:30:03.332Z,0.70
2023-01-04T09:31:03.401Z,0.70
2023-01-04T09:32:03.414Z,0.80
2023-01-04T09:33:03.319Z,0.80
2023-01-04T09:34:14.264Z,0.70
2023-01-04T09:35:03.316Z,0.60
2023-01-04T09:36:03.316Z,0.50
2023-01-04T09:37:03.307Z,0.70
2023-01-04T09:38:03.310Z,0.60
2023-01-04T09:39:03.296Z,0.50
2023-01-04T09:40:03.296Z,0.70
2023-01-04T09:41:03.592Z,0.50
2023-01-04T09:42:03.319Z,0.70
2023-01-04T09:43:21.123Z,0.40
2023-01-04T09:44:03.280Z,0.50
2023-01-04T09:45:23.172Z,0.60
2023-01-04T09:46:03.275Z,0.50
2023-01-04T09:47:03.324Z,0.70
2023-01-04T09:48:03.266Z,0.70
2023-01-04T09:49:03.265Z,0.60
2023-01-04T09:50:04.336Z,0.70
2023-01-04T09:51:03.256Z,0.60
2023-01-04T09:52:03.252Z,0.60
2023-01-04T09:53:03.264Z,3.90
2023-01-04T09:54:03.241Z,1.20
2023-01-04T09:55:36.558Z,0.90
2023-01-04T09:56:03.238Z,0.40
2023-01-04T09:57:03.233Z,0.50
2023-01-04T09:58:03.253Z,0.50
2023-01-04T09:59:03.224Z,0.50
2023-01-04T10:00:03.223Z,0.50
2023-01-04T10:01:03.279Z,0.60
2023-01-04T10:02:03.416Z,0.60
2023-01-04T10:03:03.281Z,0.50
2023-01-04T10:04:03.216Z,0.50
2023-01-04T10:05:03.212Z,0.60
2023-01-04T10:06:03.246Z,0.40
2023-01-04T10:07:05.421Z,0.60
2023-01-04T10:08:03.200Z,0.70
2023-01-04T10:09:03.189Z,0.70
2023-01-04T10:10:03.217Z,0.60
2023-01-04T10:11:03.192Z,0.60
2023-01-04T10:12:03.176Z,0.60
2023-01-04T10:13:03.234Z,0.60
2023-01-04T10:14:03.199Z,0.60
2023-01-04T10:15:03.227Z,0.80
2023-01-04T10:16:03.253Z,0.70
2023-01-04T10:17:35.441Z,0.70
2023-01-04T10:19:51.516Z,0.70
2023-01-04T10:22:03.169Z,0.60
2023-01-04T10:23:03.144Z,0.80
2023-01-04T10:24:03.137Z,0.60
2023-01-04T10:25:03.130Z,0.80
2023-01-04T10:26:03.133Z,0.80
2023-01-04T10:27:03.123Z,0.80
2023-01-04T10:28:03.128Z,0.80
2023-01-04T10:29:03.117Z,0.90
2023-01-04T10:30:03.131Z,1.00
2023-01-04T10:31:40.832Z,1.00
2023-01-04T10:32:03.145Z,1.00
2023-01-04T10:33:03.103Z,0.80
2023-01-04T10:34:03.105Z,0.80
2023-01-04T10:35:03.094Z,0.80
2023-01-04T10:36:03.095Z,0.80
2023-01-04T10:37:03.088Z,0.90
2023-01-04T10:38:03.085Z,0.90
2023-01-04T10:39:03.083Z,0.90
2023-01-04T10:40:03.075Z,0.80
2023-01-04T10:41:03.426Z,0.80
2023-01-04T10:42:03.070Z,0.90
2023-01-04T10:43:03.077Z,0.90
2023-01-04T10:44:10.572Z,1.10
2023-01-04T10:45:08.458Z,0.80
2023-01-04T10:46:03.072Z,0.90
2023-01-04T10:47:03.081Z,1.00
2023-01-04T10:48:03.052Z,0.90
2023-01-04T10:49:03.047Z,0.90
2023-01-04T10:50:03.043Z,1.00
2023-01-04T10:51:09.728Z,1.20
2023-01-04T10:52:03.041Z,1.00
2023-01-04T10:53:03.030Z,1.00
2023-01-04T10:54:03.026Z,1.10
2023-01-04T10:55:03.028Z,0.90
2023-01-04T10:56:25.190Z,1.10
2023-01-04T10:57:06.735Z,1.10
2023-01-04T10:58:04.686Z,1.20
2023-01-04T10:59:03.035Z,1.00
2023-01-04T11:00:03.037Z,1.10
2023-01-04T11:01:03.091Z,1.00
2023-01-04T11:02:03.292Z,1.20
2023-01-04T11:03:08.516Z,1.20
2023-01-04T11:04:02.992Z,1.10
2023-01-04T11:05:02.996Z,1.00
2023-01-04T11:06:02.983Z,1.20
2023-01-04T11:07:02.988Z,1.20
2023-01-04T11:08:02.990Z,1.30
2023-01-04T11:09:02.981Z,1.20
2023-01-04T11:10:02.970Z,1.30
2023-01-04T11:11:02.967Z,1.30
2023-01-04T11:12:02.962Z,1.10
2023-01-04T11:13:02.967Z,1.40
2023-01-04T11:14:02.958Z,1.30
2023-01-04T11:15:02.951Z,1.20
2023-01-04T11:16:03.061Z,1.40
2023-01-04T11:17:02.945Z,1.30
2023-01-04T11:18:02.971Z,1.40
2023-01-04T11:19:02.938Z,1.40
2023-01-04T11:20:02.933Z,1.40
2023-01-04T11:21:02.931Z,1.40
2023-01-04T11:22:02.925Z,1.20
2023-01-04T11:23:02.963Z,1.20
2023-01-04T11:24:30.161Z,1.30
2023-01-04T11:26:02.916Z,1.30
2023-01-04T11:27:02.912Z,1.50
2023-01-04T11:28:02.905Z,1.30
2023-01-04T11:29:02.910Z,1.40
2023-01-04T11:30:02.899Z,1.20
2023-01-04T11:31:02.908Z,1.30
2023-01-04T11:32:03.011Z,1.10
2023-01-04T11:33:02.895Z,1.10
2023-01-04T11:34:02.900Z,1.20
2023-01-04T11:35:02.884Z,1.20
2023-01-04T11:36:02.884Z,1.20
2023-01-04T11:37:02.887Z,1.20
2023-01-04T11:38:02.870Z,1.00
2023-01-04T11:39:02.870Z,1.10
2023-01-04T11:40:02.864Z,1.10
2023-01-04T11:41:02.860Z,1.20
2023-01-04T11:42:03.716Z,1.10
2023-01-04T11:43:02.870Z,1.10
2023-01-04T11:44:02.850Z,1.00
2023-01-04T11:45:02.851Z,1.10
2023-01-04T11:46:02.980Z,0.90
2023-01-04T11:47:02.842Z,0.80
2023-01-04T11:48:02.854Z,0.80
2023-01-04T11:49:02.846Z,1.00
2023-01-04T11:50:02.897Z,1.10
2023-01-04T11:51:02.827Z,1.00
2023-01-04T11:52:02.831Z,1.10
2023-01-04T11:53:02.823Z,1.00
2023-01-04T11:54:02.834Z,1.20
2023-01-04T11:55:02.809Z,1.00
2023-01-04T11:56:02.810Z,1.00
2023-01-04T11:57:06.159Z,1.20
2023-01-04T11:58:02.812Z,1.00
2023-01-04T11:59:02.800Z,0.80
2023-01-04T12:00:02.797Z,1.00
2023-01-04T12:01:02.807Z,1.00
2023-01-04T12:02:02.938Z,1.00
2023-01-04T12:03:03.118Z,0.90
2023-01-04T12:04:02.795Z,0.80
2023-01-04T12:05:02.780Z,0.90
2023-01-04T12:06:02.815Z,1.10
2023-01-04T12:07:02.785Z,1.00
2023-01-04T12:08:02.765Z,0.90
2023-01-04T12:09:02.767Z,0.90
2023-01-04T12:10:04.966Z,0.90
2023-01-04T12:11:02.760Z,0.80
2023-01-04T12:12:02.761Z,1.00
2023-01-04T12:13:02.766Z,0.90
2023-01-04T12:14:02.750Z,1.10
2023-01-04T12:15:02.746Z,1.00
2023-01-04T12:16:02.740Z,0.80
2023-01-04T12:17:02.760Z,1.00
2023-01-04T12:18:02.733Z,0.90
2023-01-04T12:19:02.734Z,1.00
2023-01-04T12:20:02.741Z,0.90
2023-01-04T12:21:02.727Z,0.80
2023-01-04T12:22:02.739Z,0.80
2023-01-04T12:23:02.719Z,1.00
2023-01-04T12:24:02.719Z,0.90
2023-01-04T12:25:02.712Z,0.80
2023-01-04T12:26:02.736Z,0.70
2023-01-04T12:27:02.716Z,0.70
2023-01-04T12:28:02.701Z,0.70
2023-01-04T12:29:02.701Z,0.80
2023-01-04T12:30:02.702Z,0.70
2023-01-04T12:32:02.687Z,0.80
2023-01-04T12:33:02.691Z,0.70
2023-01-04T12:34:02.684Z,0.80
2023-01-04T12:35:02.679Z,0.80
2023-01-04T12:36:02.681Z,0.70
2023-01-04T12:37:05.630Z,0.60
2023-01-04T12:38:02.689Z,0.80
2023-01-04T12:39:02.667Z,0.80
2023-01-04T12:40:02.685Z,0.70
2023-01-04T12:41:02.664Z,0.70
2023-01-04T12:42:02.660Z,0.80
2023-01-04T12:43:02.651Z,0.80
2023-01-04T12:44:02.643Z,0.80
2023-01-04T12:45:02.652Z,0.70
2023-01-04T12:46:02.693Z,0.60
2023-01-04T12:47:02.635Z,0.60
2023-01-04T12:48:02.637Z,0.70
2023-01-04T12:49:02.633Z,0.60
2023-01-04T12:50:02.624Z,0.70
2023-01-04T12:51:14.644Z,0.70
2023-01-04T12:52:29.376Z,0.60
2023-01-04T12:53:19.923Z,0.50
2023-01-04T12:54:02.656Z,0.60
2023-01-04T12:55:02.618Z,0.70
2023-01-04T12:56:02.609Z,0.70
2023-01-04T12:57:02.608Z,0.60
2023-01-04T12:58:02.612Z,0.50
2023-01-04T12:59:27.108Z,0.60
2023-01-04T13:00:02.590Z,0.60
2023-01-04T13:01:02.714Z,0.60
2023-01-04T13:02:02.687Z,0.60
2023-01-04T13:03:02.778Z,0.50
2023-01-04T13:04:05.466Z,0.40
2023-01-04T13:06:02.580Z,0.60
2023-01-04T13:07:02.597Z,0.70
2023-01-04T13:08:02.573Z,0.60
2023-01-04T13:09:02.577Z,0.40
2023-01-04T13:10:02.675Z,0.50
2023-01-04T13:11:02.560Z,0.60
2023-01-04T13:12:02.553Z,0.40
2023-01-04T13:13:02.550Z,0.40
2023-01-04T13:14:02.572Z,0.40
2023-01-04T13:15:02.559Z,0.40
2023-01-04T13:16:02.585Z,0.40
2023-01-04T13:17:02.670Z,0.40
2023-01-04T13:18:02.534Z,0.40
2023-01-04T13:19:02.534Z,0.40
2023-01-04T13:20:02.549Z,0.40
2023-01-04T13:21:02.525Z,0.40
2023-01-04T13:22:05.372Z,0.40
2023-01-04T13:23:02.533Z,0.40
2023-01-04T13:24:02.527Z,0.70